Yale, Nebraska
Current Conditions -  °F | °C
As of 12:53 AM on Sunday 23 Nov 2014 (Local Time) from KODX Reporting Station
Broken Clouds Broken Clouds  
Wind Chill: 41°   Ceiling: 11000
Heat Index: 41°   Visibility: 10mi
Dew Point: 33°   Wind: 0mph
Humidity: 73%   Direction: NA
Pressure: 29.46"   Gusts: NA
Location:  41.4381°N, 99.098°W
Report Text: KODX 230653Z AUTO 00000KT 10SM BKN110 05/01 A2946 RMK AO2 SLP979 T00500006
Loading
Personal Weather Stations






























Interactive Weather Map New forecast layout! Learn more

10-Day Weather Forecast

Advertisements
Track Severe Weather on mobile